sensor_id;sensor_type;location;lat;lon;timestamp;P1;durP1;ratioP1;P2;durP2;ratioP2
42030;SDS011;27709;52.036;5.906;2024-03-02T00:00:15;2.95;;;0.82;;
42030;SDS011;27709;52.036;5.906;2024-03-02T00:02:41;1.85;;;0.90;;
42030;SDS011;27709;52.036;5.906;2024-03-02T00:05:07;3.17;;;0.90;;
42030;SDS011;27709;52.036;5.906;2024-03-02T00:07:56;2.22;;;0.90;;
42030;SDS011;27709;52.036;5.906;2024-03-02T00:10:26;4.38;;;1.00;;
42030;SDS011;27709;52.036;5.906;2024-03-02T00:13:01;2.00;;;0.90;;
42030;SDS011;27709;52.036;5.906;2024-03-02T00:15:40;3.08;;;1.00;;
42030;SDS011;27709;52.036;5.906;2024-03-02T00:18:14;2.20;;;0.85;;
42030;SDS011;27709;52.036;5.906;2024-03-02T00:20:43;2.67;;;0.90;;
42030;SDS011;27709;52.036;5.906;2024-03-02T00:23:10;1.95;;;0.80;;
42030;SDS011;27709;52.036;5.906;2024-03-02T00:28:29;1.88;;;0.80;;
42030;SDS011;27709;52.036;5.906;2024-03-02T00:31:08;2.80;;;0.90;;
42030;SDS011;27709;52.036;5.906;2024-03-02T00:33:42;2.13;;;0.82;;
42030;SDS011;27709;52.036;5.906;2024-03-02T00:36:09;1.98;;;0.82;;
42030;SDS011;27709;52.036;5.906;2024-03-02T00:38:42;3.17;;;0.90;;
42030;SDS011;27709;52.036;5.906;2024-03-02T00:41:20;1.75;;;0.88;;
42030;SDS011;27709;52.036;5.906;2024-03-02T00:43:47;2.97;;;0.90;;
42030;SDS011;27709;52.036;5.906;2024-03-02T00:46:16;2.67;;;0.82;;
42030;SDS011;27709;52.036;5.906;2024-03-02T00:51:24;3.38;;;0.88;;
42030;SDS011;27709;52.036;5.906;2024-03-02T00:53:52;2.80;;;0.70;;
42030;SDS011;27709;52.036;5.906;2024-03-02T00:56:20;3.15;;;1.00;;
42030;SDS011;27709;52.036;5.906;2024-03-02T00:58:46;2.35;;;0.70;;
42030;SDS011;27709;52.036;5.906;2024-03-02T01:01:12;2.42;;;1.00;;
42030;SDS011;27709;52.036;5.906;2024-03-02T01:03:38;2.00;;;0.82;;
42030;SDS011;27709;52.036;5.906;2024-03-02T01:06:07;1.63;;;0.80;;
42030;SDS011;27709;52.036;5.906;2024-03-02T01:08:33;2.40;;;1.00;;
42030;SDS011;27709;52.036;5.906;2024-03-02T01:11:00;2.50;;;0.90;;
42030;SDS011;27709;52.036;5.906;2024-03-02T01:13:26;1.73;;;0.70;;
42030;SDS011;27709;52.036;5.906;2024-03-02T01:15:51;3.33;;;1.00;;
42030;SDS011;27709;52.036;5.906;2024-03-02T01:18:18;2.95;;;0.75;;
42030;SDS011;27709;52.036;5.906;2024-03-02T01:20:44;2.00;;;0.80;;
42030;SDS011;27709;52.036;5.906;2024-03-02T01:23:10;3.13;;;0.80;;
42030;SDS011;27709;52.036;5.906;2024-03-02T01:25:35;3.67;;;0.95;;
42030;SDS011;27709;52.036;5.906;2024-03-02T01:28:01;2.85;;;0.70;;
42030;SDS011;27709;52.036;5.906;2024-03-02T01:30:27;2.28;;;0.90;;
42030;SDS011;27709;52.036;5.906;2024-03-02T01:32:52;2.85;;;0.80;;
42030;SDS011;27709;52.036;5.906;2024-03-02T01:35:18;2.40;;;0.90;;
42030;SDS011;27709;52.036;5.906;2024-03-02T01:37:43;2.97;;;0.70;;
42030;SDS011;27709;52.036;5.906;2024-03-02T01:40:09;1.35;;;0.60;;
42030;SDS011;27709;52.036;5.906;2024-03-02T01:42:36;1.17;;;0.50;;
42030;SDS011;27709;52.036;5.906;2024-03-02T01:45:03;1.35;;;0.60;;
42030;SDS011;27709;52.036;5.906;2024-03-02T01:47:30;1.27;;;0.50;;
42030;SDS011;27709;52.036;5.906;2024-03-02T01:49:55;1.75;;;0.45;;
42030;SDS011;27709;52.036;5.906;2024-03-02T01:52:22;2.13;;;0.32;;
42030;SDS011;27709;52.036;5.906;2024-03-02T01:54:48;0.75;;;0.22;;
42030;SDS011;27709;52.036;5.906;2024-03-02T01:57:13;1.63;;;0.40;;
42030;SDS011;27709;52.036;5.906;2024-03-02T01:59:39;1.80;;;0.30;;
42030;SDS011;27709;52.036;5.906;2024-03-02T02:02:04;1.00;;;0.30;;
42030;SDS011;27709;52.036;5.906;2024-03-02T02:04:30;1.02;;;0.30;;
42030;SDS011;27709;52.036;5.906;2024-03-02T02:06:56;2.90;;;0.30;;
42030;SDS011;27709;52.036;5.906;2024-03-02T02:09:21;1.52;;;0.32;;
42030;SDS011;27709;52.036;5.906;2024-03-02T02:11:47;2.15;;;0.38;;
42030;SDS011;27709;52.036;5.906;2024-03-02T02:14:13;1.55;;;0.32;;
42030;SDS011;27709;52.036;5.906;2024-03-02T02:16:38;0.75;;;0.30;;
42030;SDS011;27709;52.036;5.906;2024-03-02T02:19:13;1.58;;;0.20;;
42030;SDS011;27709;52.036;5.906;2024-03-02T02:21:41;1.90;;;0.30;;
42030;SDS011;27709;52.036;5.906;2024-03-02T02:24:07;0.52;;;0.30;;
42030;SDS011;27709;52.036;5.906;2024-03-02T02:26:33;0.82;;;0.10;;
42030;SDS011;27709;52.036;5.906;2024-03-02T02:28:59;0.95;;;0.20;;
42030;SDS011;27709;52.036;5.906;2024-03-02T02:31:24;0.80;;;0.20;;
42030;SDS011;27709;52.036;5.906;2024-03-02T02:33:50;0.57;;;0.20;;
42030;SDS011;27709;52.036;5.906;2024-03-02T02:36:18;0.38;;;0.17;;
42030;SDS011;27709;52.036;5.906;2024-03-02T02:38:44;0.80;;;0.10;;
42030;SDS011;27709;52.036;5.906;2024-03-02T02:41:12;1.08;;;0.10;;
42030;SDS011;27709;52.036;5.906;2024-03-02T02:43:38;0.40;;;0.10;;
42030;SDS011;27709;52.036;5.906;2024-03-02T02:46:05;1.15;;;0.20;;
42030;SDS011;27709;52.036;5.906;2024-03-02T02:48:30;0.65;;;0.20;;
42030;SDS011;27709;52.036;5.906;2024-03-02T02:50:56;0.30;;;0.10;;
42030;SDS011;27709;52.036;5.906;2024-03-02T02:53:23;0.95;;;0.13;;
42030;SDS011;27709;52.036;5.906;2024-03-02T02:55:48;1.05;;;0.30;;
42030;SDS011;27709;52.036;5.906;2024-03-02T02:58:14;0.45;;;0.10;;
42030;SDS011;27709;52.036;5.906;2024-03-02T03:00:40;0.25;;;0.10;;
42030;SDS011;27709;52.036;5.906;2024-03-02T03:03:05;0.55;;;0.25;;
42030;SDS011;27709;52.036;5.906;2024-03-02T03:05:31;0.50;;;0.10;;
42030;SDS011;27709;52.036;5.906;2024-03-02T03:07:56;1.00;;;0.10;;
42030;SDS011;27709;52.036;5.906;2024-03-02T03:10:22;0.70;;;0.20;;
42030;SDS011;27709;52.036;5.906;2024-03-02T03:12:50;2.08;;;0.20;;
42030;SDS011;27709;52.036;5.906;2024-03-02T03:15:16;0.20;;;0.10;;
42030;SDS011;27709;52.036;5.906;2024-03-02T03:17:42;0.28;;;0.17;;
42030;SDS011;27709;52.036;5.906;2024-03-02T03:20:08;0.60;;;0.10;;
42030;SDS011;27709;52.036;5.906;2024-03-02T03:22:40;0.82;;;0.20;;
42030;SDS011;27709;52.036;5.906;2024-03-02T03:25:06;0.28;;;0.10;;
42030;SDS011;27709;52.036;5.906;2024-03-02T03:27:34;0.30;;;0.10;;
42030;SDS011;27709;52.036;5.906;2024-03-02T03:30:00;1.10;;;0.20;;
42030;SDS011;27709;52.036;5.906;2024-03-02T03:32:26;0.20;;;0.10;;
42030;SDS011;27709;52.036;5.906;2024-03-02T03:34:52;0.70;;;0.20;;
42030;SDS011;27709;52.036;5.906;2024-03-02T03:37:17;0.85;;;0.20;;
42030;SDS011;27709;52.036;5.906;2024-03-02T03:39:43;1.30;;;0.10;;
42030;SDS011;27709;52.036;5.906;2024-03-02T03:42:09;0.20;;;0.10;;
42030;SDS011;27709;52.036;5.906;2024-03-02T03:44:34;0.50;;;0.20;;
42030;SDS011;27709;52.036;5.906;2024-03-02T03:47:00;0.38;;;0.10;;
42030;SDS011;27709;52.036;5.906;2024-03-02T03:49:28;1.05;;;0.15;;
42030;SDS011;27709;52.036;5.906;2024-03-02T03:51:54;0.70;;;0.13;;
42030;SDS011;27709;52.036;5.906;2024-03-02T03:54:28;0.32;;;0.20;;
42030;SDS011;27709;52.036;5.906;2024-03-02T03:56:54;0.70;;;0.20;;
42030;SDS011;27709;52.036;5.906;2024-03-02T03:59:19;0.30;;;0.15;;
42030;SDS011;27709;52.036;5.906;2024-03-02T04:01:45;0.38;;;0.20;;
42030;SDS011;27709;52.036;5.906;2024-03-02T04:04:11;1.27;;;0.10;;
42030;SDS011;27709;52.036;5.906;2024-03-02T04:06:37;0.45;;;0.10;;
42030;SDS011;27709;52.036;5.906;2024-03-02T04:09:02;0.52;;;0.10;;
42030;SDS011;27709;52.036;5.906;2024-03-02T04:11:28;0.50;;;0.13;;
42030;SDS011;27709;52.036;5.906;2024-03-02T04:13:55;1.75;;;0.20;;
42030;SDS011;27709;52.036;5.906;2024-03-02T04:16:21;0.70;;;0.20;;
42030;SDS011;27709;52.036;5.906;2024-03-02T04:18:46;0.90;;;0.20;;
42030;SDS011;27709;52.036;5.906;2024-03-02T04:21:12;1.48;;;0.17;;
42030;SDS011;27709;52.036;5.906;2024-03-02T04:23:37;0.17;;;0.10;;
42030;SDS011;27709;52.036;5.906;2024-03-02T04:26:03;1.08;;;0.20;;
42030;SDS011;27709;52.036;5.906;2024-03-02T04:28:29;0.30;;;0.10;;
42030;SDS011;27709;52.036;5.906;2024-03-02T04:30:54;0.20;;;0.10;;
42030;SDS011;27709;52.036;5.906;2024-03-02T04:33:20;0.63;;;0.20;;
42030;SDS011;27709;52.036;5.906;2024-03-02T04:35:46;0.70;;;0.20;;
42030;SDS011;27709;52.036;5.906;2024-03-02T04:38:11;0.68;;;0.20;;
42030;SDS011;27709;52.036;5.906;2024-03-02T04:40:37;0.73;;;0.10;;
42030;SDS011;27709;52.036;5.906;2024-03-02T04:43:02;1.25;;;0.20;;
42030;SDS011;27709;52.036;5.906;2024-03-02T04:45:28;0.70;;;0.20;;
42030;SDS011;27709;52.036;5.906;2024-03-02T04:47:54;0.55;;;0.20;;
42030;SDS011;27709;52.036;5.906;2024-03-02T04:50:22;1.77;;;0.10;;
42030;SDS011;27709;52.036;5.906;2024-03-02T04:52:47;1.25;;;0.20;;
42030;SDS011;27709;52.036;5.906;2024-03-02T04:55:13;0.30;;;0.10;;
42030;SDS011;27709;52.036;5.906;2024-03-02T04:57:54;0.60;;;0.20;;
42030;SDS011;27709;52.036;5.906;2024-03-02T05:00:21;0.60;;;0.13;;
42030;SDS011;27709;52.036;5.906;2024-03-02T05:02:48;0.52;;;0.20;;
42030;SDS011;27709;52.036;5.906;2024-03-02T05:05:13;1.10;;;0.20;;
42030;SDS011;27709;52.036;5.906;2024-03-02T05:07:42;2.05;;;0.20;;
42030;SDS011;27709;52.036;5.906;2024-03-02T05:10:10;1.67;;;0.30;;
42030;SDS011;27709;52.036;5.906;2024-03-02T05:12:36;0.95;;;0.13;;
42030;SDS011;27709;52.036;5.906;2024-03-02T05:15:08;0.52;;;0.20;;
42030;SDS011;27709;52.036;5.906;2024-03-02T05:17:38;0.60;;;0.20;;
42030;SDS011;27709;52.036;5.906;2024-03-02T05:20:05;1.30;;;0.20;;
42030;SDS011;27709;52.036;5.906;2024-03-02T05:22:33;0.90;;;0.20;;
42030;SDS011;27709;52.036;5.906;2024-03-02T05:24:59;1.08;;;0.10;;
42030;SDS011;27709;52.036;5.906;2024-03-02T05:27:25;0.52;;;0.20;;
42030;SDS011;27709;52.036;5.906;2024-03-02T05:29:54;0.82;;;0.20;;
42030;SDS011;27709;52.036;5.906;2024-03-02T05:32:19;0.50;;;0.20;;
42030;SDS011;27709;52.036;5.906;2024-03-02T05:34:45;1.88;;;0.20;;
42030;SDS011;27709;52.036;5.906;2024-03-02T05:37:11;1.17;;;0.22;;
42030;SDS011;27709;52.036;5.906;2024-03-02T05:39:36;1.65;;;0.20;;
42030;SDS011;27709;52.036;5.906;2024-03-02T05:42:02;1.60;;;0.22;;
42030;SDS011;27709;52.036;5.906;2024-03-02T05:44:28;0.38;;;0.10;;
42030;SDS011;27709;52.036;5.906;2024-03-02T05:46:54;1.50;;;0.20;;
42030;SDS011;27709;52.036;5.906;2024-03-02T05:49:19;2.17;;;0.30;;
42030;SDS011;27709;52.036;5.906;2024-03-02T05:51:45;1.38;;;0.30;;
42030;SDS011;27709;52.036;5.906;2024-03-02T05:54:11;0.50;;;0.20;;
42030;SDS011;27709;52.036;5.906;2024-03-02T05:56:36;0.50;;;0.20;;
42030;SDS011;27709;52.036;5.906;2024-03-02T05:59:02;0.90;;;0.20;;
42030;SDS011;27709;52.036;5.906;2024-03-02T06:01:47;0.75;;;0.10;;
42030;SDS011;27709;52.036;5.906;2024-03-02T06:04:15;1.05;;;0.20;;
42030;SDS011;27709;52.036;5.906;2024-03-02T06:06:41;1.65;;;0.20;;
42030;SDS011;27709;52.036;5.906;2024-03-02T06:09:07;2.03;;;0.10;;
42030;SDS011;27709;52.036;5.906;2024-03-02T06:11:36;0.45;;;0.10;;
42030;SDS011;27709;52.036;5.906;2024-03-02T06:14:04;1.52;;;0.20;;
42030;SDS011;27709;52.036;5.906;2024-03-02T06:16:31;2.50;;;0.35;;
42030;SDS011;27709;52.036;5.906;2024-03-02T06:18:57;1.23;;;0.20;;
42030;SDS011;27709;52.036;5.906;2024-03-02T06:21:24;1.15;;;0.52;;
42030;SDS011;27709;52.036;5.906;2024-03-02T06:23:50;0.95;;;0.20;;
42030;SDS011;27709;52.036;5.906;2024-03-02T06:26:15;0.85;;;0.20;;
42030;SDS011;27709;52.036;5.906;2024-03-02T06:28:41;0.80;;;0.20;;
42030;SDS011;27709;52.036;5.906;2024-03-02T06:31:08;1.35;;;0.20;;
42030;SDS011;27709;52.036;5.906;2024-03-02T06:33:34;1.17;;;0.22;;
42030;SDS011;27709;52.036;5.906;2024-03-02T06:35:59;1.58;;;0.20;;
42030;SDS011;27709;52.036;5.906;2024-03-02T06:38:25;0.85;;;0.20;;
42030;SDS011;27709;52.036;5.906;2024-03-02T06:40:51;0.80;;;0.20;;
42030;SDS011;27709;52.036;5.906;2024-03-02T06:43:17;2.15;;;0.20;;
42030;SDS011;27709;52.036;5.906;2024-03-02T06:45:42;1.58;;;0.20;;
42030;SDS011;27709;52.036;5.906;2024-03-02T06:48:08;1.45;;;0.20;;
42030;SDS011;27709;52.036;5.906;2024-03-02T06:50:33;1.13;;;0.10;;
42030;SDS011;27709;52.036;5.906;2024-03-02T06:52:59;0.93;;;0.20;;
42030;SDS011;27709;52.036;5.906;2024-03-02T06:55:25;2.65;;;0.30;;
42030;SDS011;27709;52.036;5.906;2024-03-02T06:57:51;2.45;;;0.20;;
42030;SDS011;27709;52.036;5.906;2024-03-02T07:00:17;1.30;;;0.20;;
42030;SDS011;27709;52.036;5.906;2024-03-02T07:02:45;1.05;;;0.20;;
42030;SDS011;27709;52.036;5.906;2024-03-02T07:05:10;1.20;;;0.20;;
42030;SDS011;27709;52.036;5.906;2024-03-02T07:07:36;0.98;;;0.22;;
42030;SDS011;27709;52.036;5.906;2024-03-02T07:10:03;1.00;;;0.20;;
42030;SDS011;27709;52.036;5.906;2024-03-02T07:12:29;1.77;;;0.20;;
42030;SDS011;27709;52.036;5.906;2024-03-02T07:14:55;2.67;;;0.20;;
42030;SDS011;27709;52.036;5.906;2024-03-02T07:17:32;2.38;;;0.20;;
42030;SDS011;27709;52.036;5.906;2024-03-02T07:19:58;2.67;;;0.30;;
42030;SDS011;27709;52.036;5.906;2024-03-02T07:22:23;1.38;;;0.20;;
42030;SDS011;27709;52.036;5.906;2024-03-02T07:24:49;2.40;;;0.40;;
42030;SDS011;27709;52.036;5.906;2024-03-02T07:27:15;1.50;;;0.13;;
42030;SDS011;27709;52.036;5.906;2024-03-02T07:29:41;1.02;;;0.10;;
42030;SDS011;27709;52.036;5.906;2024-03-02T07:32:08;0.40;;;0.20;;
42030;SDS011;27709;52.036;5.906;2024-03-02T07:34:35;0.73;;;0.30;;
42030;SDS011;27709;52.036;5.906;2024-03-02T07:37:01;0.88;;;0.28;;
42030;SDS011;27709;52.036;5.906;2024-03-02T07:39:27;0.88;;;0.30;;
42030;SDS011;27709;52.036;5.906;2024-03-02T07:41:52;1.00;;;0.30;;
42030;SDS011;27709;52.036;5.906;2024-03-02T07:44:18;1.73;;;0.43;;
42030;SDS011;27709;52.036;5.906;2024-03-02T07:46:44;1.45;;;0.30;;
42030;SDS011;27709;52.036;5.906;2024-03-02T07:49:15;2.00;;;0.30;;
42030;SDS011;27709;52.036;5.906;2024-03-02T07:51:41;0.80;;;0.30;;
42030;SDS011;27709;52.036;5.906;2024-03-02T07:54:07;2.50;;;0.43;;
42030;SDS011;27709;52.036;5.906;2024-03-02T07:56:32;1.60;;;0.40;;
42030;SDS011;27709;52.036;5.906;2024-03-02T07:59:00;1.17;;;0.40;;
42030;SDS011;27709;52.036;5.906;2024-03-02T08:01:30;2.35;;;0.30;;
42030;SDS011;27709;52.036;5.906;2024-03-02T08:04:00;1.35;;;0.38;;
42030;SDS011;27709;52.036;5.906;2024-03-02T08:06:27;2.10;;;0.45;;
42030;SDS011;27709;52.036;5.906;2024-03-02T08:09:01;2.83;;;0.43;;
42030;SDS011;27709;52.036;5.906;2024-03-02T08:11:32;2.47;;;0.32;;
42030;SDS011;27709;52.036;5.906;2024-03-02T08:13:58;1.58;;;0.30;;
42030;SDS011;27709;52.036;5.906;2024-03-02T08:16:23;3.50;;;0.30;;
42030;SDS011;27709;52.036;5.906;2024-03-02T08:18:50;1.40;;;0.30;;
42030;SDS011;27709;52.036;5.906;2024-03-02T08:21:16;2.05;;;0.30;;
42030;SDS011;27709;52.036;5.906;2024-03-02T08:23:42;1.38;;;0.20;;
42030;SDS011;27709;52.036;5.906;2024-03-02T08:26:08;1.35;;;0.30;;
42030;SDS011;27709;52.036;5.906;2024-03-02T08:28:34;2.70;;;0.40;;
42030;SDS011;27709;52.036;5.906;2024-03-02T08:31:02;1.20;;;0.30;;
42030;SDS011;27709;52.036;5.906;2024-03-02T08:33:31;1.52;;;0.22;;
42030;SDS011;27709;52.036;5.906;2024-03-02T08:35:56;1.17;;;0.20;;
42030;SDS011;27709;52.036;5.906;2024-03-02T08:38:22;1.05;;;0.30;;
42030;SDS011;27709;52.036;5.906;2024-03-02T08:40:49;0.80;;;0.20;;
42030;SDS011;27709;52.036;5.906;2024-03-02T08:43:15;3.05;;;0.40;;
42030;SDS011;27709;52.036;5.906;2024-03-02T08:45:40;1.60;;;0.20;;
42030;SDS011;27709;52.036;5.906;2024-03-02T08:48:09;3.15;;;0.30;;
42030;SDS011;27709;52.036;5.906;2024-03-02T08:50:35;2.30;;;0.35;;
42030;SDS011;27709;52.036;5.906;2024-03-02T08:53:01;0.98;;;0.40;;
42030;SDS011;27709;52.036;5.906;2024-03-02T08:55:27;3.20;;;0.30;;
42030;SDS011;27709;52.036;5.906;2024-03-02T08:57:53;1.92;;;0.22;;
42030;SDS011;27709;52.036;5.906;2024-03-02T09:00:19;2.58;;;0.40;;
42030;SDS011;27709;52.036;5.906;2024-03-02T09:02:45;2.67;;;0.32;;
42030;SDS011;27709;52.036;5.906;2024-03-02T09:05:10;1.95;;;0.40;;
42030;SDS011;27709;52.036;5.906;2024-03-02T09:07:36;1.95;;;0.35;;
42030;SDS011;27709;52.036;5.906;2024-03-02T09:10:03;2.17;;;0.43;;
42030;SDS011;27709;52.036;5.906;2024-03-02T09:12:30;2.70;;;0.30;;
42030;SDS011;27709;52.036;5.906;2024-03-02T09:14:57;4.32;;;0.50;;
42030;SDS011;27709;52.036;5.906;2024-03-02T09:17:23;2.05;;;0.30;;
42030;SDS011;27709;52.036;5.906;2024-03-02T09:19:49;1.77;;;0.40;;
42030;SDS011;27709;52.036;5.906;2024-03-02T09:22:17;2.35;;;0.30;;
42030;SDS011;27709;52.036;5.906;2024-03-02T09:24:43;1.02;;;0.40;;
42030;SDS011;27709;52.036;5.906;2024-03-02T09:27:09;2.00;;;0.38;;
42030;SDS011;27709;52.036;5.906;2024-03-02T09:29:34;1.70;;;0.30;;
42030;SDS011;27709;52.036;5.906;2024-03-02T09:32:00;3.35;;;0.30;;
42030;SDS011;27709;52.036;5.906;2024-03-02T09:34:25;2.50;;;0.32;;
42030;SDS011;27709;52.036;5.906;2024-03-02T09:36:51;3.15;;;0.60;;
42030;SDS011;27709;52.036;5.906;2024-03-02T09:39:17;2.80;;;0.50;;
42030;SDS011;27709;52.036;5.906;2024-03-02T09:41:43;1.73;;;0.32;;
42030;SDS011;27709;52.036;5.906;2024-03-02T09:44:09;2.63;;;0.40;;
42030;SDS011;27709;52.036;5.906;2024-03-02T09:46:35;2.30;;;0.30;;
42030;SDS011;27709;52.036;5.906;2024-03-02T09:49:01;2.10;;;0.45;;
42030;SDS011;27709;52.036;5.906;2024-03-02T09:51:27;3.13;;;0.30;;
42030;SDS011;27709;52.036;5.906;2024-03-02T09:53:53;1.90;;;0.30;;
42030;SDS011;27709;52.036;5.906;2024-03-02T09:56:20;1.42;;;0.20;;
42030;SDS011;27709;52.036;5.906;2024-03-02T09:58:46;2.70;;;0.35;;
42030;SDS011;27709;52.036;5.906;2024-03-02T10:01:12;2.75;;;0.45;;
42030;SDS011;27709;52.036;5.906;2024-03-02T10:03:38;1.25;;;0.30;;
42030;SDS011;27709;52.036;5.906;2024-03-02T10:06:23;3.22;;;0.40;;
42030;SDS011;27709;52.036;5.906;2024-03-02T10:08:49;2.13;;;0.30;;
42030;SDS011;27709;52.036;5.906;2024-03-02T10:11:32;4.03;;;0.30;;
42030;SDS011;27709;52.036;5.906;2024-03-02T10:16:34;1.77;;;0.30;;
42030;SDS011;27709;52.036;5.906;2024-03-02T10:19:23;1.90;;;0.30;;
42030;SDS011;27709;52.036;5.906;2024-03-02T10:21:48;2.03;;;0.38;;
42030;SDS011;27709;52.036;5.906;2024-03-02T10:24:15;4.15;;;0.38;;
42030;SDS011;27709;52.036;5.906;2024-03-02T10:26:41;2.03;;;0.30;;
42030;SDS011;27709;52.036;5.906;2024-03-02T10:29:08;1.77;;;0.30;;
42030;SDS011;27709;52.036;5.906;2024-03-02T10:31:36;2.10;;;0.30;;
42030;SDS011;27709;52.036;5.906;2024-03-02T10:34:06;2.97;;;0.43;;
42030;SDS011;27709;52.036;5.906;2024-03-02T10:36:36;3.58;;;0.40;;
42030;SDS011;27709;52.036;5.906;2024-03-02T10:39:02;2.58;;;0.30;;
42030;SDS011;27709;52.036;5.906;2024-03-02T10:41:29;3.45;;;0.32;;
42030;SDS011;27709;52.036;5.906;2024-03-02T10:43:59;1.63;;;0.30;;
42030;SDS011;27709;52.036;5.906;2024-03-02T10:46:29;2.03;;;0.30;;
42030;SDS011;27709;52.036;5.906;2024-03-02T10:48:56;2.53;;;0.30;;
42030;SDS011;27709;52.036;5.906;2024-03-02T10:51:24;2.45;;;0.35;;
42030;SDS011;27709;52.036;5.906;2024-03-02T10:53:56;2.42;;;0.30;;
42030;SDS011;27709;52.036;5.906;2024-03-02T10:56:29;1.88;;;0.30;;
42030;SDS011;27709;52.036;5.906;2024-03-02T10:59:01;1.80;;;0.20;;
42030;SDS011;27709;52.036;5.906;2024-03-02T11:01:29;1.53;;;0.30;;
42030;SDS011;27709;52.036;5.906;2024-03-02T11:03:56;1.77;;;0.30;;
42030;SDS011;27709;52.036;5.906;2024-03-02T11:06:23;2.15;;;0.30;;
42030;SDS011;27709;52.036;5.906;2024-03-02T11:08:51;2.17;;;0.30;;
42030;SDS011;27709;52.036;5.906;2024-03-02T11:11:22;1.35;;;0.40;;
42030;SDS011;27709;52.036;5.906;2024-03-02T11:13:54;1.27;;;0.30;;
42030;SDS011;27709;52.036;5.906;2024-03-02T11:18:55;1.65;;;0.28;;
42030;SDS011;27709;52.036;5.906;2024-03-02T11:21:20;3.28;;;0.45;;
42030;SDS011;27709;52.036;5.906;2024-03-02T11:23:47;2.20;;;0.40;;
42030;SDS011;27709;52.036;5.906;2024-03-02T11:26:19;1.70;;;0.30;;
42030;SDS011;27709;52.036;5.906;2024-03-02T11:28:46;1.25;;;0.30;;
42030;SDS011;27709;52.036;5.906;2024-03-02T11:31:12;2.88;;;0.40;;
42030;SDS011;27709;52.036;5.906;2024-03-02T11:33:38;2.05;;;0.35;;
42030;SDS011;27709;52.036;5.906;2024-03-02T11:36:06;2.35;;;0.40;;
42030;SDS011;27709;52.036;5.906;2024-03-02T11:38:38;2.17;;;0.38;;
42030;SDS011;27709;52.036;5.906;2024-03-02T11:41:08;1.60;;;0.30;;
42030;SDS011;27709;52.036;5.906;2024-03-02T11:43:36;1.65;;;0.22;;
42030;SDS011;27709;52.036;5.906;2024-03-02T11:46:04;1.20;;;0.40;;
42030;SDS011;27709;52.036;5.906;2024-03-02T11:48:32;1.20;;;0.30;;
42030;SDS011;27709;52.036;5.906;2024-03-02T11:50:58;3.72;;;0.35;;
42030;SDS011;27709;52.036;5.906;2024-03-02T11:53:28;1.50;;;0.28;;
42030;SDS011;27709;52.036;5.906;2024-03-02T11:55:57;1.80;;;0.40;;
42030;SDS011;27709;52.036;5.906;2024-03-02T11:58:24;2.60;;;0.32;;
42030;SDS011;27709;52.036;5.906;2024-03-02T12:00:51;2.22;;;0.40;;
42030;SDS011;27709;52.036;5.906;2024-03-02T12:03:17;1.38;;;0.30;;
42030;SDS011;27709;52.036;5.906;2024-03-02T12:05:45;2.35;;;0.50;;
42030;SDS011;27709;52.036;5.906;2024-03-02T12:08:18;2.65;;;0.30;;
42030;SDS011;27709;52.036;5.906;2024-03-02T12:11:00;1.90;;;0.40;;
42030;SDS011;27709;52.036;5.906;2024-03-02T12:13:40;1.77;;;0.30;;
42030;SDS011;27709;52.036;5.906;2024-03-02T12:16:07;1.00;;;0.32;;
42030;SDS011;27709;52.036;5.906;2024-03-02T12:18:32;2.38;;;0.30;;
42030;SDS011;27709;52.036;5.906;2024-03-02T12:20:58;2.13;;;0.30;;
42030;SDS011;27709;52.036;5.906;2024-03-02T12:23:24;1.00;;;0.30;;
42030;SDS011;27709;52.036;5.906;2024-03-02T12:25:50;1.85;;;0.20;;
42030;SDS011;27709;52.036;5.906;2024-03-02T12:28:16;2.47;;;0.20;;
42030;SDS011;27709;52.036;5.906;2024-03-02T12:30:42;3.67;;;0.30;;
42030;SDS011;27709;52.036;5.906;2024-03-02T12:33:07;4.05;;;0.30;;
42030;SDS011;27709;52.036;5.906;2024-03-02T12:35:35;2.55;;;0.30;;
42030;SDS011;27709;52.036;5.906;2024-03-02T12:38:01;1.23;;;0.40;;
42030;SDS011;27709;52.036;5.906;2024-03-02T12:40:27;2.40;;;0.30;;
42030;SDS011;27709;52.036;5.906;2024-03-02T12:42:52;2.28;;;0.30;;
42030;SDS011;27709;52.036;5.906;2024-03-02T12:45:18;1.77;;;0.40;;
42030;SDS011;27709;52.036;5.906;2024-03-02T12:47:50;2.97;;;0.30;;
42030;SDS011;27709;52.036;5.906;2024-03-02T12:50:18;1.75;;;0.30;;
42030;SDS011;27709;52.036;5.906;2024-03-02T12:52:50;2.05;;;0.40;;
42030;SDS011;27709;52.036;5.906;2024-03-02T12:55:17;1.95;;;0.35;;
42030;SDS011;27709;52.036;5.906;2024-03-02T12:57:42;3.05;;;0.35;;
42030;SDS011;27709;52.036;5.906;2024-03-02T13:00:09;2.38;;;0.30;;
42030;SDS011;27709;52.036;5.906;2024-03-02T13:02:36;1.58;;;0.30;;
42030;SDS011;27709;52.036;5.906;2024-03-02T13:05:06;1.85;;;0.35;;
42030;SDS011;27709;52.036;5.906;2024-03-02T13:07:41;2.20;;;0.40;;
42030;SDS011;27709;52.036;5.906;2024-03-02T13:10:07;1.15;;;0.30;;
42030;SDS011;27709;52.036;5.906;2024-03-02T13:12:34;0.73;;;0.20;;
42030;SDS011;27709;52.036;5.906;2024-03-02T13:15:02;2.22;;;0.40;;
42030;SDS011;27709;52.036;5.906;2024-03-02T13:17:28;1.52;;;0.35;;
42030;SDS011;27709;52.036;5.906;2024-03-02T13:19:57;2.92;;;0.63;;
42030;SDS011;27709;52.036;5.906;2024-03-02T13:22:25;2.40;;;0.60;;
42030;SDS011;27709;52.036;5.906;2024-03-02T13:24:51;3.03;;;0.75;;
42030;SDS011;27709;52.036;5.906;2024-03-02T13:27:19;2.35;;;0.63;;
42030;SDS011;27709;52.036;5.906;2024-03-02T13:29:45;2.00;;;0.60;;
42030;SDS011;27709;52.036;5.906;2024-03-02T13:32:14;1.83;;;0.70;;
42030;SDS011;27709;52.036;5.906;2024-03-02T13:34:40;3.22;;;0.95;;
42030;SDS011;27709;52.036;5.906;2024-03-02T13:37:06;2.10;;;0.52;;
42030;SDS011;27709;52.036;5.906;2024-03-02T13:39:32;2.88;;;0.70;;
42030;SDS011;27709;52.036;5.906;2024-03-02T13:42:04;2.65;;;0.90;;
42030;SDS011;27709;52.036;5.906;2024-03-02T13:44:33;1.50;;;0.60;;
42030;SDS011;27709;52.036;5.906;2024-03-02T13:46:59;1.58;;;0.50;;
42030;SDS011;27709;52.036;5.906;2024-03-02T13:49:26;1.45;;;0.50;;
42030;SDS011;27709;52.036;5.906;2024-03-02T13:51:59;1.55;;;0.50;;
42030;SDS011;27709;52.036;5.906;2024-03-02T13:54:27;2.00;;;0.60;;
42030;SDS011;27709;52.036;5.906;2024-03-02T13:56:53;1.67;;;0.60;;
42030;SDS011;27709;52.036;5.906;2024-03-02T13:59:19;1.55;;;0.47;;
42030;SDS011;27709;52.036;5.906;2024-03-02T14:01:45;2.42;;;0.60;;
42030;SDS011;27709;52.036;5.906;2024-03-02T14:04:11;1.92;;;0.55;;
42030;SDS011;27709;52.036;5.906;2024-03-02T14:06:37;2.78;;;0.47;;
42030;SDS011;27709;52.036;5.906;2024-03-02T14:09:03;1.73;;;0.52;;
42030;SDS011;27709;52.036;5.906;2024-03-02T14:11:28;2.03;;;0.40;;
42030;SDS011;27709;52.036;5.906;2024-03-02T14:13:54;2.28;;;0.43;;
42030;SDS011;27709;52.036;5.906;2024-03-02T14:16:20;1.95;;;0.35;;
42030;SDS011;27709;52.036;5.906;2024-03-02T14:18:45;2.85;;;0.40;;
42030;SDS011;27709;52.036;5.906;2024-03-02T14:21:11;2.28;;;0.50;;
42030;SDS011;27709;52.036;5.906;2024-03-02T14:23:37;1.75;;;0.30;;
42030;SDS011;27709;52.036;5.906;2024-03-02T14:26:02;2.72;;;0.40;;
42030;SDS011;27709;52.036;5.906;2024-03-02T14:28:28;1.70;;;0.38;;
42030;SDS011;27709;52.036;5.906;2024-03-02T14:30:54;2.85;;;0.60;;
42030;SDS011;27709;52.036;5.906;2024-03-02T14:33:19;2.50;;;0.40;;
42030;SDS011;27709;52.036;5.906;2024-03-02T14:35:45;2.95;;;0.50;;
42030;SDS011;27709;52.036;5.906;2024-03-02T14:38:11;3.10;;;0.35;;
42030;SDS011;27709;52.036;5.906;2024-03-02T14:40:38;2.03;;;0.50;;
42030;SDS011;27709;52.036;5.906;2024-03-02T14:43:03;1.95;;;0.40;;
42030;SDS011;27709;52.036;5.906;2024-03-02T14:45:29;3.33;;;0.50;;
42030;SDS011;27709;52.036;5.906;2024-03-02T14:47:55;2.67;;;0.40;;
42030;SDS011;27709;52.036;5.906;2024-03-02T14:50:24;2.70;;;0.40;;
42030;SDS011;27709;52.036;5.906;2024-03-02T14:52:52;1.08;;;0.32;;
42030;SDS011;27709;52.036;5.906;2024-03-02T14:55:18;2.47;;;0.30;;
42030;SDS011;27709;52.036;5.906;2024-03-02T14:57:44;1.77;;;0.50;;